Flight Track Log - Related Links

Times and Time Zones

All times are in EST time to prevent confusion due to time zone crossing. See the N53NW flight status page for this flight to view local times or setup timezone preferences in your user account.

Time Position Orientation Groundspeed Altitude Reporting Facility
EST Latitude Longitude Course Direction KTS MPH feet Rate Location/Type
Sun 11:10:45 AM 39.8667 -75.2667 270° West 181 208 900  Level Philadelphia TRACON
Sun 11:10:57 AM 39.8667 -75.2833 270° West 184 212 1,600 3,083 Climbing Philadelphia TRACON
Sun 11:11:57 AM 39.8500 -75.3667 255° West 219 252 4,600 1,969 Climbing Philadelphia TRACON
Sun 11:15:13 AM 39.8683 -75.6247 275° West 230 265 10,000 1,570 Climbing New York Center
Sun 11:16:13 AM 39.8742 -75.7036 276° West 224 258 11,300 1,869 Climbing New York Center
Sun 11:17:15 AM 39.8794 -75.7847 275° West 223 257 13,800 2,683 Climbing New York Center
Sun 11:18:16 AM 39.8858 -75.8736 275° West 230 265 16,800 2,634 Climbing New York Center
Sun 11:19:18 AM 39.8919 -75.9603 275° West 234 269 19,200 2,323 Climbing New York Center
Sun 11:20:20 AM 39.8981 -76.0503 275° West 251 289 21,600 2,634 Climbing New York Center
Sun 11:21:21 AM 39.9056 -76.1556 275° West 268 308 24,600 2,511 Climbing New York Center
Sun 11:23:24 AM 39.9144 -76.3494 273° West 263 303 29,300 2,205 Climbing New York Center
Sun 11:24:26 AM 39.9183 -76.4461 273° West 264 304 31,400 1,742 Climbing New York Center
Sun 11:25:28 AM 39.9219 -76.5447 273° West 269 310 32,900 1,463 Climbing New York Center
Sun 11:26:29 AM 39.9275 -76.6464 274° West 278 320 34,400 1,317 Climbing New York Center
Sun 11:27:31 AM 39.9314 -76.7475 273° West 278 320 35,600 1,122 Climbing New York Center
Sun 11:28:32 AM 39.9347 -76.8492 272° West 279 321 36,700 1,024 Climbing New York Center
Sun 11:29:34 AM 39.9383 -76.9528 273° West 283 326 37,700 976 Climbing New York Center
Sun 11:30:35 AM 39.9428 -77.0567 273° West 285 328 38,700 1,024 Climbing New York Center
Sun 11:31:37 AM 39.9464 -77.1800 272° West 287 330 39,800 927 Climbing New York Center
Sun 11:32:38 AM 39.9494 -77.2811 272° West 282 325 40,600 780 Climbing New York Center
Sun 11:33:40 AM 39.9528 -77.3819 273° West 281 323 41,400 780 Climbing New York Center
Sun 11:34:41 AM 39.9564 -77.4794 273° West 275 316 42,200 519 Climbing New York Center
Sun 11:36:45 AM 39.9614 -77.6700 272° West 262 302 43,000 286 Climbing New York Center
Sun 11:37:29 AM 39.9636 -77.7517 272° West 274 315 43,000  Level Cleveland Center
Sun 11:38:31 AM 39.9678 -77.8558 273° West 285 328 43,000  Level Cleveland Center
Sun 11:39:32 AM 39.9706 -77.9619 272° West 293 337 43,000  Level Cleveland Center
Sun 11:40:34 AM 39.9733 -78.0700 272° West 298 343 43,000  Level Cleveland Center
Sun 11:41:35 AM 39.9764 -78.1989 272° West 299 344 43,000  Level Cleveland Center
Sun 11:42:36 AM 39.9797 -78.2892 273° West 299 344 43,000  Level Cleveland Center
Sun 11:43:38 AM 39.9825 -78.4197 272° West 300 345 43,000  Level Cleveland Center
Sun 11:44:39 AM 39.9861 -78.5289 273° West 302 348 43,000  Level Cleveland Center
Sun 11:45:41 AM 39.9881 -78.6394 271° West 305 351 43,000  Level Cleveland Center
Sun 11:46:42 AM 39.9906 -78.7494 272° West 305 351 43,000  Level Cleveland Center
Sun 11:47:44 AM 39.9931 -78.8614 272° West 309 356 43,000  Level Cleveland Center
Sun 11:48:45 AM 39.9958 -78.9661 272° West 311 358 43,000  Level Cleveland Center
Sun 11:49:46 AM 39.9975 -79.1025 271° West 314 361 43,000  Level Cleveland Center
Sun 11:51:49 AM 40.0022 -79.3322 272° West 319 367 43,000  Level Cleveland Center
Sun 11:52:51 AM 40.0031 -79.4481 271° West 321 369 43,000  Level Cleveland Center
Sun 11:53:52 AM 40.0056 -79.5656 272° West 325 374 43,000  Level Cleveland Center
Sun 11:54:53 AM 40.0069 -79.6825 271° West 325 374 43,000  Level Cleveland Center
Sun 11:55:55 AM 40.0086 -79.8000 271° West 325 374 43,000  Level Cleveland Center
Sun 11:56:56 AM 40.0108 -79.9186 271° West 328 377 43,000  Level Cleveland Center
Sun 11:57:57 AM 40.0047 -80.0356 266° West 325 374 43,000  Level Cleveland Center
Sun 11:58:59 AM 39.9983 -80.1522 266° West 323 372 43,000  Level Cleveland Center
Sun 12:00:00 PM 39.9906 -80.2692 265° West 323 372 43,000  Level Cleveland Center
Sun 12:01:02 PM 39.9839 -80.4103 267° West 323 372 43,000  Level Cleveland Center
Sun 12:02:03 PM 39.9756 -80.5275 265° West 324 373 43,000  Level Cleveland Center
Sun 12:04:06 PM 39.9625 -80.7625 266° West 325 374 43,000  Level Cleveland Center
Sun 12:05:07 PM 39.9553 -80.8786 265° West 323 372 43,000  Level Cleveland Center
Sun 12:06:08 PM 39.9472 -80.9967 265° West 325 374 43,000  Level Cleveland Center
Sun 12:07:10 PM 39.9394 -81.1144 265° West 326 375 43,000  Level Cleveland Center
Sun 12:08:38 PM 39.9278 -81.2789 265° West 329 379 43,000  Level Indianapolis Center
Sun 12:10:14 PM 39.9153 -81.4828 265° West 329 379 43,000  Level Cleveland Center
Sun 12:11:15 PM 39.9067 -81.6017 265° West 330 380 43,000 98 Level Cleveland Center
Sun 12:12:17 PM 39.8986 -81.7200 265° West 330 380 43,200 440 Climbing Cleveland Center
Sun 12:13:45 PM 39.8869 -81.8800 265° West 322 371 44,100 636 Climbing Indianapolis Center
Sun 12:14:48 PM 39.8772 -82.0128 265° West 310 357 44,800 435 Climbing Indianapolis Center
Sun 12:15:49 PM 39.8700 -82.1208 265° West 303 349 45,000 98 Climbing Indianapolis Center
Sun 12:16:50 PM 39.8608 -82.2308 264° West 304 350 45,000  Level Indianapolis Center
Sun 12:17:52 PM 39.8528 -82.3439 265° West 311 358 45,000  Level Indianapolis Center
Sun 12:18:54 PM 39.8436 -82.4589 264° West 318 366 45,000  Level Indianapolis Center
Sun 12:19:54 PM 39.8347 -82.5744 264° West 320 368 45,000  Level Indianapolis Center
Sun 12:20:54 PM 39.8256 -82.6897 264° West 321 369 45,000  Level Indianapolis Center
Sun 12:21:56 PM 39.8161 -82.8039 264° West 320 368 45,000  Level Indianapolis Center
Sun 12:23:32 PM 39.8025 -82.9872 265° West 319 367 45,000  Level Cleveland Center
Sun 12:24:33 PM 39.7928 -83.1014 264° West 318 366 45,000  Level Cleveland Center
Sun 12:26:02 PM 39.7767 -83.2850 264° West 319 367 45,000  Level Indianapolis Center
Sun 12:28:06 PM 39.7589 -83.4986 264° West 315 362 45,000  Level Indianapolis Center
Sun 12:29:06 PM 39.7475 -83.6317 264° West 316 364 45,000  Level Indianapolis Center
Sun 12:31:08 PM 39.7267 -83.8617 263° West 319 367 45,000  Level Indianapolis Center
Sun 12:32:09 PM 39.7167 -83.9761 264° West 320 368 45,000  Level Indianapolis Center
Sun 12:33:12 PM 39.7067 -84.0900 264° West 319 367 45,000  Level Indianapolis Center
Sun 12:34:13 PM 39.6964 -84.2044 263° West 320 368 45,000  Level Indianapolis Center
Sun 12:35:14 PM 39.6861 -84.3186 263° West 319 367 45,000  Level Indianapolis Center
Sun 12:36:15 PM 39.6750 -84.4336 263° West 320 368 45,000  Level Indianapolis Center
Sun 12:37:16 PM 39.6617 -84.5703 263° West 321 369 45,000  Level Indianapolis Center
Sun 12:38:17 PM 39.6500 -84.6850 263° West 321 369 45,000  Level Indianapolis Center
Sun 12:39:21 PM 39.6389 -84.8003 263° West 322 371 45,000  Level Indianapolis Center
Sun 12:41:22 PM 39.6175 -85.0261 263° West 323 372 45,000  Level Indianapolis Center
Sun 12:42:25 PM 39.6058 -85.1408 263° West 323 372 45,000  Level Indianapolis Center
Sun 12:43:26 PM 39.5947 -85.2564 263° West 324 373 45,000  Level Indianapolis Center
Sun 12:44:26 PM 39.5803 -85.3969 262° West 327 376 45,000  Level Indianapolis Center
Sun 12:45:30 PM 39.5683 -85.5119 262° West 325 374 45,000  Level Indianapolis Center
Sun 12:47:32 PM 39.5436 -85.7433 262° West 324 373 45,000  Level Indianapolis Center
Sun 12:48:33 PM 39.5317 -85.8600 262° West 325 374 45,000  Level Indianapolis Center
Sun 12:49:33 PM 39.5186 -85.9764 262° West 327 376 45,000  Level Indianapolis Center
Sun 12:50:36 PM 39.5056 -86.0925 262° West 326 375 45,000  Level Indianapolis Center
Sun 12:51:37 PM 39.4928 -86.2100 262° West 327 376 45,000  Level Indianapolis Center
Sun 12:52:38 PM 39.4808 -86.3258 262° West 324 373 45,000  Level Indianapolis Center
Sun 12:53:39 PM 39.4642 -86.4644 261° West 324 373 45,000  Level Indianapolis Center
Sun 12:55:11 PM 39.4447 -86.6414 262° West 326 375 45,000  Level Kansas City Center
Sun 12:56:13 PM 39.4319 -86.7575 262° West 325 374 45,000  Level Kansas City Center
Sun 12:56:46 PM 39.4261 -86.8142 262° West 325 374 45,000  Level Indianapolis Center
Sun 12:57:46 PM 39.4125 -86.9286 261° West 323 372 45,000  Level Indianapolis Center
Sun 12:58:46 PM 39.3989 -87.0433 261° West 323 372 45,000  Level Indianapolis Center
Sun 12:59:50 PM 39.3856 -87.1597 262° West 327 376 45,000  Level Indianapolis Center
Sun 01:00:52 PM 39.3711 -87.2725 261° West 323 372 45,000  Level Indianapolis Center
Sun 01:01:52 PM 39.3553 -87.4114 262° West 325 374 45,000  Level Indianapolis Center
Sun 01:02:53 PM 39.3406 -87.5258 261° West 326 375 45,000  Level Indianapolis Center
Sun 01:04:26 PM 39.3183 -87.7047 261° West 324 373 45,000  Level Kansas City Center
Sun 01:04:58 PM 39.3131 -87.7492 261° West 325 374 45,000  Level Indianapolis Center
Sun 01:05:59 PM 39.2992 -87.8642 261° West 324 373 45,000  Level Indianapolis Center
Sun 01:06:59 PM 39.2839 -87.9783 260° West 324 373 45,000  Level Indianapolis Center
Sun 01:08:03 PM 39.2672 -88.1175 261° West 325 374 45,000  Level Indianapolis Center
Sun 01:08:34 PM 39.2600 -88.1653 259° West 326 375 45,000  Level Kansas City Center
Sun 01:09:35 PM 39.2458 -88.2794 261° West 323 372 45,000  Level Kansas City Center
Sun 01:11:07 PM 39.2228 -88.4631 261° West 325 374 45,000  Level Indianapolis Center
Sun 01:11:39 PM 39.2119 -88.5336 259° West 325 374 45,000  Level Kansas City Center
Sun 01:12:41 PM 39.1986 -88.6372 261° West 326 375 45,000  Level Kansas City Center
Sun 01:14:12 PM 39.1761 -88.8108 261° West 328 377 45,000  Level Indianapolis Center
Sun 01:14:45 PM 39.1656 -88.8903 260° West 326 375 45,000  Level Kansas City Center
Sun 01:15:47 PM 39.1497 -89.0056 260° West 326 375 45,000  Level Kansas City Center
Sun 01:16:49 PM 39.1350 -89.1192 261° West 324 373 45,000  Level Kansas City Center
Sun 01:17:51 PM 39.1203 -89.2322 261° West 321 369 45,000  Level Kansas City Center
Sun 01:18:52 PM 39.1042 -89.3436 259° West 319 367 45,000  Level Kansas City Center
Sun 01:20:56 PM 39.0733 -89.5692 260° West 320 368 45,000  Level Kansas City Center
Sun 01:23:00 PM 39.0378 -89.8183 260° West 324 373 45,000  Level Kansas City Center
Sun 01:24:02 PM 39.0217 -89.9319 260° West 325 374 45,000  Level Kansas City Center
Sun 01:26:07 PM 38.9889 -90.1594 260° West 326 375 45,000  Level Kansas City Center
Sun 01:27:09 PM 38.9689 -90.2956 259° West 326 375 45,000  Level Kansas City Center
Sun 01:28:11 PM 38.9519 -90.4081 259° West 326 375 45,000 -258 Level Kansas City Center
Sun 01:30:15 PM 38.9167 -90.6492 259° West 321 369 44,200 -452 Descending Kansas City Center
Sun 01:31:17 PM 38.8992 -90.7619 259° West 315 362 43,600 -581 Descending Kansas City Center
Sun 01:32:19 PM 38.8833 -90.8683 259° West 306 352 43,000 -290 Descending Kansas City Center
Sun 01:33:21 PM 38.8661 -90.9778 259° West 311 358 43,000  Level Kansas City Center
Sun 01:35:25 PM 38.8339 -91.1917 259° West 308 354 43,000  Level Kansas City Center
Sun 01:36:27 PM 38.8167 -91.2989 258° West 308 354 43,000  Level Kansas City Center
Sun 01:37:29 PM 38.7969 -91.4283 259° West 309 356 43,000  Level Kansas City Center
Sun 01:39:33 PM 38.7642 -91.6422 259° West 307 353 43,000  Level Kansas City Center
Sun 01:41:37 PM 38.7286 -91.8644 257° West 314 361 43,000  Level Kansas City Center
Sun 01:42:39 PM 38.7108 -91.9728 258° West 313 360 43,000  Level Kansas City Center
Sun 01:44:43 PM 38.6725 -92.2100 257° West 310 357 43,000  Level Kansas City Center
Sun 01:46:47 PM 38.6353 -92.4247 256° West 309 356 43,000  Level Kansas City Center
Sun 01:47:49 PM 38.6169 -92.5325 258° West 309 356 43,000  Level Kansas City Center
Sun 01:48:51 PM 38.5986 -92.6411 258° West 312 359 43,000  Level Kansas City Center
Sun 01:49:53 PM 38.5803 -92.7503 258° West 313 360 43,000  Level Kansas City Center
Sun 01:50:55 PM 38.5572 -92.8819 257° West 315 362 43,000  Level Kansas City Center
Sun 01:51:57 PM 38.5386 -92.9936 258° West 319 367 43,000  Level Kansas City Center
Sun 01:54:01 PM 38.5019 -93.2125 257° West 316 364 43,000  Level Kansas City Center
Sun 01:56:00 PM 38.4618 -93.4246 256° West  Level FlightAware Approximate
Sun 01:57:07 PM 38.4389 -93.5675 256° West 320 368 43,000  Level Kansas City Center
Sun 01:58:09 PM 38.4194 -93.6781 257° West 320 368 43,000  Level Kansas City Center
Sun 02:00:12 PM 38.3794 -93.8997 257° West 321 369 43,000  Level Kansas City Center
Sun 02:01:14 PM 38.3586 -94.0122 257° West 323 372 43,000  Level Kansas City Center
Sun 02:02:16 PM 38.3392 -94.1217 257° West 320 368 43,000  Level Kansas City Center
Sun 02:03:18 PM 38.3172 -94.2444 257° West 318 366 43,000  Level Kansas City Center
Sun 02:04:20 PM 38.2967 -94.3522 256° West 320 368 43,000  Level Kansas City Center
Sun 02:05:22 PM 38.2731 -94.4756 256° West 322 371 43,000  Level Kansas City Center
Sun 02:07:26 PM 38.2317 -94.7050 257° West 321 369 43,000  Level Kansas City Center
Sun 02:08:28 PM 38.2125 -94.8100 257° West 320 368 43,000 -290 Level Kansas City Center
Sun 02:10:32 PM 38.1703 -95.0394 254° West 321 369 42,100 -866 Descending Kansas City Center
Sun 02:11:35 PM 38.1517 -95.1408 257° West 315 362 40,300 -1,871 Descending Kansas City Center
Sun 02:13:38 PM 38.1175 -95.3281 254° West 254 292 36,300 -2,173 Descending Kansas City Center
Sun 02:14:40 PM 38.0961 -95.4408 256° West 291 335 33,600 -2,323 Descending Kansas City Center
Sun 02:16:44 PM 38.0267 -95.6236 256° West 294 338 29,100 -2,105 Descending Kansas City Center
Sun 02:18:48 PM 37.9325 -95.7700 266° West 274 315 24,900 -1,911 Descending Kansas City Center
Sun 02:20:52 PM 37.9119 -95.9369 285° West 242 278 21,200 -2,032 Descending Kansas City Center
Sun 02:21:54 PM 37.8983 -96.0403 261° West 248 285 18,600 -2,129 Descending Kansas City Center
Sun 02:22:56 PM 37.8875 -96.1236 261° West 245 282 16,800 -1,935 Descending Kansas City Center
Sun 02:25:00 PM 37.8661 -96.2933 282° West 232 267 12,600 -2,000 Descending Kansas City Center
Sun 02:26:02 PM 37.8567 -96.3719 261° West 227 261 10,600 -1,595 Descending Kansas City Center
Sun 02:27:38 PM 37.8411 -96.5031 261° West 226 260 8,400 -1,258 Descending Kansas City Center
Sun 02:28:06 PM 37.8369 -96.5294 259° West 228 262 8,000 -1,180 Descending Kansas City Center
Sun 02:29:40 PM 37.7853 -96.6531 242° Southwest 257 296 6,000 -1,306 Descending Kansas City Center
Sun 02:30:10 PM 37.7636 -96.6950 237° Southwest 251 289 5,300 -1,000 Descending Kansas City Center
Sun 02:30:40 PM 37.7431 -96.7342 236° Southwest 254 292 5,000 -290 Descending Kansas City Center
Sun 02:31:12 PM 37.7264 -96.7689 239° Southwest 252 290 5,000  Level Kansas City Center
Sun 02:31:41 PM 37.7067 -96.8089 238° Southwest 251 289 5,000 -197 Level Kansas City Center
Sun 02:32:13 PM 37.6886 -96.8439 237° Southwest 252 290 4,800 -800 Descending Kansas City Center
Sun 02:32:41 PM 37.6681 -96.8839 237° Southwest 252 290 4,200 -581 Descending Kansas City Center
Sun 02:34:17 PM 37.6161 -96.9858 237° Southwest 244 281 3,600 -295 Descending Kansas City Center
Sun 02:34:43 PM 37.5981 -97.0222 238° Southwest 232 267 3,600  Level Kansas City Center
Sun 02:35:19 PM 37.5819 -97.0547 238° Southwest 238 274 3,600  Level Kansas City Center
Sun 02:35:44 PM 37.5631 -97.0911 237° Southwest 233 268 3,600  Level Kansas City Center
Sun 02:36:21 PM 37.5492 -97.1242 242° Southwest 234 269 3,600  Level Kansas City Center
Sun 02:36:50 PM 37.5517 -97.1669 274° West 192 221 3,600  Level Kansas City Center
Sun 02:37:22 PM 37.5561 -97.2044 279° West 202 232 3,600 -298 Level Kansas City Center
Sun 02:38:51 PM 37.6033 -97.2433 327° Northwest 150 173 3,000 -290 Descending Kansas City Center
Sun 02:39:26 PM 37.6242 -97.2383 11° North 165 190 3,000  Level Kansas City Center
Sun 02:39:52 PM 37.6428 -97.2372 North 144 166 3,000  Level Kansas City Center
Sun 02:40:27 PM 37.6647 -97.2333 North 154 177 3,000 -495 Level Kansas City Center
Sun 02:41:29 PM 37.6942 -97.2278 North 131 151 2,200 -587 Descending Kansas City Center
Sun 02:41:59 PM 37.7089 -97.2267 North 98 113 2,100 -396 Descending Kansas City Center
Sun 02:43:00 PM 37.7358 -97.2225 North 94 108 1,600 -492 Descending Kansas City Center
Sun 02:44:00 PM 37.7476 -97.2211 North  Level Estimated

Login

Don't have an account? Register now (free) for customized features, flight alerts, and more!